Terminal Aerodrome Forecast
Issued by NWS

Home | Current Version | Previous Version | Text Only | Print | Product List | Glossary Off
Versions: 1 2 3 4 5 6 7 8 9 10 11 12 13 14 15 16 17 18 19

000
FTUS42 KMHX 151720
TAFOAJ
TAF
KOAJ 151720Z 1518/1618 04010KT P6SM VCSH BKN015
     FM160000 03010KT 6SM -RA OVC015
     FM160500 03008KT P6SM VCSH OVC010
     FM161000 07010KT P6SM VCSH OVC020
      AMD LTD TO CLD VIS AND WIND=

USA.gov is the U.S. government's official web portal to all federal, state and local government web resources and services.